sensor_id;sensor_type;location;lat;lon;timestamp;pressure;altitude;pressure_sealevel;temperature;humidity
71145;BME280;58812;47.698;17.726;2023-04-22T00:00:47;100042.75;;;9.72;100.00
71145;BME280;58812;47.698;17.726;2023-04-22T00:03:12;100041.66;;;9.75;100.00
71145;BME280;58812;47.698;17.726;2023-04-22T00:05:39;100034.47;;;9.75;100.00
71145;BME280;58812;47.698;17.726;2023-04-22T00:08:06;100046.84;;;9.76;100.00
71145;BME280;58812;47.698;17.726;2023-04-22T00:10:31;100050.69;;;9.64;100.00
71145;BME280;58812;47.698;17.726;2023-04-22T00:12:57;100044.56;;;9.81;100.00
71145;BME280;58812;47.698;17.726;2023-04-22T00:15:22;100047.09;;;9.83;100.00
71145;BME280;58812;47.698;17.726;2023-04-22T00:17:49;100047.56;;;9.78;100.00
71145;BME280;58812;47.698;17.726;2023-04-22T00:20:16;100045.34;;;9.64;100.00
71145;BME280;58812;47.698;17.726;2023-04-22T00:22:41;100045.91;;;9.58;100.00
71145;BME280;58812;47.698;17.726;2023-04-22T00:25:07;100045.34;;;9.54;100.00
71145;BME280;58812;47.698;17.726;2023-04-22T00:27:32;100045.06;;;9.67;100.00
71145;BME280;58812;47.698;17.726;2023-04-22T00:29:58;100043.31;;;9.85;100.00
71145;BME280;58812;47.698;17.726;2023-04-22T00:32:23;100047.03;;;9.65;100.00
71145;BME280;58812;47.698;17.726;2023-04-22T00:34:49;100041.22;;;9.79;100.00
71145;BME280;58812;47.698;17.726;2023-04-22T00:37:14;100044.16;;;9.76;100.00
71145;BME280;58812;47.698;17.726;2023-04-22T00:39:40;100039.12;;;9.73;100.00
71145;BME280;58812;47.698;17.726;2023-04-22T00:42:06;100038.31;;;9.63;100.00
71145;BME280;58812;47.698;17.726;2023-04-22T00:44:31;100032.19;;;9.43;100.00
71145;BME280;58812;47.698;17.726;2023-04-22T00:46:58;100041.91;;;9.44;100.00
71145;BME280;58812;47.698;17.726;2023-04-22T00:49:26;100039.25;;;9.25;99.50
71145;BME280;58812;47.698;17.726;2023-04-22T00:51:52;100036.81;;;9.41;100.00
71145;BME280;58812;47.698;17.726;2023-04-22T00:54:18;100035.97;;;9.50;100.00
71145;BME280;58812;47.698;17.726;2023-04-22T00:56:44;100036.66;;;9.52;100.00
71145;BME280;58812;47.698;17.726;2023-04-22T00:59:10;100036.91;;;9.59;100.00
71145;BME280;58812;47.698;17.726;2023-04-22T01:01:35;100042.31;;;9.49;100.00
71145;BME280;58812;47.698;17.726;2023-04-22T01:04:02;100044.53;;;9.54;100.00
71145;BME280;58812;47.698;17.726;2023-04-22T01:06:28;100040.75;;;9.47;100.00
71145;BME280;58812;47.698;17.726;2023-04-22T01:08:56;100040.63;;;9.39;100.00
71145;BME280;58812;47.698;17.726;2023-04-22T01:11:22;100041.75;;;9.46;100.00
71145;BME280;58812;47.698;17.726;2023-04-22T01:13:48;100050.03;;;9.43;100.00
71145;BME280;58812;47.698;17.726;2023-04-22T01:16:13;100051.50;;;9.74;100.00
71145;BME280;58812;47.698;17.726;2023-04-22T01:18:39;100054.34;;;9.63;100.00
71145;BME280;58812;47.698;17.726;2023-04-22T01:21:04;100051.56;;;9.55;100.00
71145;BME280;58812;47.698;17.726;2023-04-22T01:23:31;100053.53;;;9.53;100.00
71145;BME280;58812;47.698;17.726;2023-04-22T01:25:57;100054.03;;;9.66;100.00
71145;BME280;58812;47.698;17.726;2023-04-22T01:28:23;100054.94;;;9.57;100.00
71145;BME280;58812;47.698;17.726;2023-04-22T01:30:48;100056.00;;;9.74;100.00
71145;BME280;58812;47.698;17.726;2023-04-22T01:33:15;100058.28;;;9.59;100.00
71145;BME280;58812;47.698;17.726;2023-04-22T01:35:41;100051.25;;;9.68;100.00
71145;BME280;58812;47.698;17.726;2023-04-22T01:38:08;100050.34;;;9.40;100.00
71145;BME280;58812;47.698;17.726;2023-04-22T01:40:34;100041.47;;;9.49;100.00
71145;BME280;58812;47.698;17.726;2023-04-22T01:43:00;100051.28;;;9.58;100.00
71145;BME280;58812;47.698;17.726;2023-04-22T01:45:27;100044.00;;;9.41;100.00
71145;BME280;58812;47.698;17.726;2023-04-22T01:47:53;100052.84;;;9.51;100.00
71145;BME280;58812;47.698;17.726;2023-04-22T01:50:19;100062.12;;;9.47;100.00
71145;BME280;58812;47.698;17.726;2023-04-22T01:52:44;100056.34;;;9.61;100.00
71145;BME280;58812;47.698;17.726;2023-04-22T01:55:10;100056.09;;;9.45;100.00
71145;BME280;58812;47.698;17.726;2023-04-22T01:57:35;100053.03;;;9.30;100.00
71145;BME280;58812;47.698;17.726;2023-04-22T02:00:02;100056.16;;;9.16;100.00
71145;BME280;58812;47.698;17.726;2023-04-22T02:02:29;100060.50;;;9.26;100.00
71145;BME280;58812;47.698;17.726;2023-04-22T02:04:55;100056.97;;;9.16;100.00
71145;BME280;58812;47.698;17.726;2023-04-22T02:07:20;100057.53;;;9.29;100.00
71145;BME280;58812;47.698;17.726;2023-04-22T02:09:46;100055.72;;;9.10;100.00
71145;BME280;58812;47.698;17.726;2023-04-22T02:12:11;100054.03;;;9.00;100.00
71145;BME280;58812;47.698;17.726;2023-04-22T02:14:36;100053.63;;;8.95;100.00
71145;BME280;58812;47.698;17.726;2023-04-22T02:17:02;100058.38;;;9.01;100.00
71145;BME280;58812;47.698;17.726;2023-04-22T02:19:27;100058.00;;;8.86;100.00
71145;BME280;58812;47.698;17.726;2023-04-22T02:21:53;100048.03;;;8.78;100.00
71145;BME280;58812;47.698;17.726;2023-04-22T02:24:18;100053.63;;;8.95;100.00
71145;BME280;58812;47.698;17.726;2023-04-22T02:26:44;100047.03;;;8.99;100.00
71145;BME280;58812;47.698;17.726;2023-04-22T02:29:11;100048.59;;;9.01;100.00
71145;BME280;58812;47.698;17.726;2023-04-22T02:31:37;100050.56;;;8.90;100.00
71145;BME280;58812;47.698;17.726;2023-04-22T02:34:03;100049.12;;;8.76;100.00
71145;BME280;58812;47.698;17.726;2023-04-22T02:36:28;100053.06;;;8.43;100.00
71145;BME280;58812;47.698;17.726;2023-04-22T02:38:54;100051.34;;;8.42;100.00
71145;BME280;58812;47.698;17.726;2023-04-22T02:41:19;100063.34;;;8.67;100.00
71145;BME280;58812;47.698;17.726;2023-04-22T02:43:45;100053.91;;;8.82;100.00
71145;BME280;58812;47.698;17.726;2023-04-22T02:46:13;100049.28;;;8.74;100.00
71145;BME280;58812;47.698;17.726;2023-04-22T02:48:40;100050.53;;;8.51;100.00
71145;BME280;58812;47.698;17.726;2023-04-22T02:51:06;100049.41;;;8.44;100.00
71145;BME280;58812;47.698;17.726;2023-04-22T02:53:31;100045.88;;;8.43;100.00
71145;BME280;58812;47.698;17.726;2023-04-22T02:55:56;100053.25;;;8.30;100.00
71145;BME280;58812;47.698;17.726;2023-04-22T02:58:23;100055.56;;;8.44;100.00
71145;BME280;58812;47.698;17.726;2023-04-22T03:00:48;100052.19;;;8.52;100.00
71145;BME280;58812;47.698;17.726;2023-04-22T03:03:14;100052.78;;;8.65;100.00
71145;BME280;58812;47.698;17.726;2023-04-22T03:05:39;100047.72;;;8.81;100.00
71145;BME280;58812;47.698;17.726;2023-04-22T03:08:05;100051.66;;;8.77;100.00
71145;BME280;58812;47.698;17.726;2023-04-22T03:10:31;100046.75;;;8.92;100.00
71145;BME280;58812;47.698;17.726;2023-04-22T03:12:56;100050.53;;;8.70;100.00
71145;BME280;58812;47.698;17.726;2023-04-22T03:15:22;100042.38;;;8.52;100.00
71145;BME280;58812;47.698;17.726;2023-04-22T03:17:48;100042.62;;;8.40;100.00
71145;BME280;58812;47.698;17.726;2023-04-22T03:20:14;100033.94;;;8.38;100.00
71145;BME280;58812;47.698;17.726;2023-04-22T03:22:39;100042.47;;;8.32;100.00
71145;BME280;58812;47.698;17.726;2023-04-22T03:25:05;100047.50;;;8.25;100.00
71145;BME280;58812;47.698;17.726;2023-04-22T03:27:31;100044.94;;;8.14;100.00
71145;BME280;58812;47.698;17.726;2023-04-22T03:29:56;100044.50;;;8.09;100.00
71145;BME280;58812;47.698;17.726;2023-04-22T03:32:22;100050.47;;;8.32;100.00
71145;BME280;58812;47.698;17.726;2023-04-22T03:34:47;100040.59;;;8.13;100.00
71145;BME280;58812;47.698;17.726;2023-04-22T03:37:12;100047.31;;;8.17;100.00
71145;BME280;58812;47.698;17.726;2023-04-22T03:39:38;100041.69;;;8.10;100.00
71145;BME280;58812;47.698;17.726;2023-04-22T03:42:03;100052.06;;;8.03;100.00
71145;BME280;58812;47.698;17.726;2023-04-22T03:44:28;100047.53;;;7.94;100.00
71145;BME280;58812;47.698;17.726;2023-04-22T03:46:54;100051.16;;;7.84;100.00
71145;BME280;58812;47.698;17.726;2023-04-22T03:49:20;100051.41;;;7.81;100.00
71145;BME280;58812;47.698;17.726;2023-04-22T03:51:45;100050.09;;;7.96;100.00
71145;BME280;58812;47.698;17.726;2023-04-22T03:54:10;100051.97;;;7.74;100.00
71145;BME280;58812;47.698;17.726;2023-04-22T03:56:36;100048.41;;;7.95;100.00
71145;BME280;58812;47.698;17.726;2023-04-22T03:59:01;100050.63;;;7.90;100.00
71145;BME280;58812;47.698;17.726;2023-04-22T04:01:27;100048.41;;;8.04;100.00
71145;BME280;58812;47.698;17.726;2023-04-22T04:03:52;100052.31;;;7.91;100.00
71145;BME280;58812;47.698;17.726;2023-04-22T04:06:17;100052.59;;;7.97;100.00
71145;BME280;58812;47.698;17.726;2023-04-22T04:08:43;100054.06;;;8.11;100.00
71145;BME280;58812;47.698;17.726;2023-04-22T04:11:08;100048.13;;;7.98;100.00
71145;BME280;58812;47.698;17.726;2023-04-22T04:13:34;100055.88;;;8.11;100.00
71145;BME280;58812;47.698;17.726;2023-04-22T04:16:00;100058.94;;;8.06;100.00
71145;BME280;58812;47.698;17.726;2023-04-22T04:18:25;100060.38;;;8.10;100.00
71145;BME280;58812;47.698;17.726;2023-04-22T04:20:51;100064.56;;;8.43;100.00
71145;BME280;58812;47.698;17.726;2023-04-22T04:23:16;100068.47;;;8.39;100.00
71145;BME280;58812;47.698;17.726;2023-04-22T04:25:42;100070.44;;;8.47;100.00
71145;BME280;58812;47.698;17.726;2023-04-22T04:28:10;100063.47;;;8.55;100.00
71145;BME280;58812;47.698;17.726;2023-04-22T04:30:36;100068.25;;;8.62;100.00
71145;BME280;58812;47.698;17.726;2023-04-22T04:33:02;100072.72;;;8.71;100.00
71145;BME280;58812;47.698;17.726;2023-04-22T04:35:35;100073.00;;;9.16;100.00
71145;BME280;58812;47.698;17.726;2023-04-22T04:38:02;100070.38;;;9.63;100.00
71145;BME280;58812;47.698;17.726;2023-04-22T04:40:28;100078.91;;;9.86;100.00
71145;BME280;58812;47.698;17.726;2023-04-22T04:42:54;100081.66;;;9.47;96.71
71145;BME280;58812;47.698;17.726;2023-04-22T04:45:22;100078.63;;;9.32;96.73
71145;BME280;58812;47.698;17.726;2023-04-22T04:47:47;100091.25;;;9.50;96.41
71145;BME280;58812;47.698;17.726;2023-04-22T04:50:17;100082.69;;;9.83;96.82
71145;BME280;58812;47.698;17.726;2023-04-22T04:52:42;100085.00;;;10.06;94.98
71145;BME280;58812;47.698;17.726;2023-04-22T04:55:08;100087.13;;;10.39;93.77
71145;BME280;58812;47.698;17.726;2023-04-22T04:57:33;100100.41;;;10.94;92.18
71145;BME280;58812;47.698;17.726;2023-04-22T04:59:59;100098.88;;;11.10;90.76
71145;BME280;58812;47.698;17.726;2023-04-22T05:02:25;100101.56;;;10.92;87.63
71145;BME280;58812;47.698;17.726;2023-04-22T05:04:51;100099.00;;;11.26;86.91
71145;BME280;58812;47.698;17.726;2023-04-22T05:07:16;100098.66;;;11.21;85.85
71145;BME280;58812;47.698;17.726;2023-04-22T05:09:41;100095.78;;;11.40;85.90
71145;BME280;58812;47.698;17.726;2023-04-22T05:12:07;100095.69;;;11.32;82.73
71145;BME280;58812;47.698;17.726;2023-04-22T05:14:32;100098.69;;;11.47;81.97
71145;BME280;58812;47.698;17.726;2023-04-22T05:16:58;100103.03;;;11.48;84.21
71145;BME280;58812;47.698;17.726;2023-04-22T05:19:23;100093.94;;;11.67;83.05
71145;BME280;58812;47.698;17.726;2023-04-22T05:21:48;100105.69;;;11.66;83.29
71145;BME280;58812;47.698;17.726;2023-04-22T05:24:14;100103.72;;;12.28;82.47
71145;BME280;58812;47.698;17.726;2023-04-22T05:26:39;100102.91;;;12.36;80.37
71145;BME280;58812;47.698;17.726;2023-04-22T05:29:05;100113.44;;;12.29;80.74
71145;BME280;58812;47.698;17.726;2023-04-22T05:31:32;100108.56;;;12.33;80.22
71145;BME280;58812;47.698;17.726;2023-04-22T05:33:58;100110.06;;;12.27;80.75
71145;BME280;58812;47.698;17.726;2023-04-22T05:36:23;100107.84;;;12.65;80.35
71145;BME280;58812;47.698;17.726;2023-04-22T05:38:49;100109.59;;;12.82;78.20
71145;BME280;58812;47.698;17.726;2023-04-22T05:41:14;100109.59;;;12.98;77.13
71145;BME280;58812;47.698;17.726;2023-04-22T05:43:40;100112.69;;;13.52;75.89
71145;BME280;58812;47.698;17.726;2023-04-22T05:46:05;100122.37;;;13.94;75.25
71145;BME280;58812;47.698;17.726;2023-04-22T05:48:31;100105.53;;;14.00;75.05
71145;BME280;58812;47.698;17.726;2023-04-22T05:50:56;100108.16;;;14.25;73.91
71145;BME280;58812;47.698;17.726;2023-04-22T05:53:21;100108.69;;;14.59;72.02
71145;BME280;58812;47.698;17.726;2023-04-22T05:55:47;100112.09;;;14.45;72.00
71145;BME280;58812;47.698;17.726;2023-04-22T05:58:12;100111.78;;;14.40;71.49
71145;BME280;58812;47.698;17.726;2023-04-22T06:00:38;100111.69;;;14.64;70.64
71145;BME280;58812;47.698;17.726;2023-04-22T06:03:03;100114.53;;;14.94;69.85
71145;BME280;58812;47.698;17.726;2023-04-22T06:05:28;100117.53;;;14.99;67.73
71145;BME280;58812;47.698;17.726;2023-04-22T06:07:54;100118.37;;;15.68;66.65
71145;BME280;58812;47.698;17.726;2023-04-22T06:10:19;100117.09;;;15.56;65.79
71145;BME280;58812;47.698;17.726;2023-04-22T06:12:45;100120.34;;;15.74;64.83
71145;BME280;58812;47.698;17.726;2023-04-22T06:15:10;100117.66;;;15.52;65.50
71145;BME280;58812;47.698;17.726;2023-04-22T06:17:36;100126.88;;;16.10;62.61
71145;BME280;58812;47.698;17.726;2023-04-22T06:20:01;100118.50;;;16.05;60.61
71145;BME280;58812;47.698;17.726;2023-04-22T06:22:27;100131.06;;;16.42;58.53
71145;BME280;58812;47.698;17.726;2023-04-22T06:24:52;100136.78;;;16.32;58.95
71145;BME280;58812;47.698;17.726;2023-04-22T06:27:18;100130.12;;;16.35;57.95
71145;BME280;58812;47.698;17.726;2023-04-22T06:29:43;100125.34;;;16.81;57.46
71145;BME280;58812;47.698;17.726;2023-04-22T06:32:08;100133.16;;;16.91;54.24
71145;BME280;58812;47.698;17.726;2023-04-22T06:34:34;100128.81;;;17.32;55.28
71145;BME280;58812;47.698;17.726;2023-04-22T06:36:59;100130.75;;;16.96;53.38
71145;BME280;58812;47.698;17.726;2023-04-22T06:39:25;100132.81;;;17.15;51.70
71145;BME280;58812;47.698;17.726;2023-04-22T06:41:50;100136.28;;;17.09;52.09
71145;BME280;58812;47.698;17.726;2023-04-22T06:44:15;100129.81;;;16.89;50.99
71145;BME280;58812;47.698;17.726;2023-04-22T06:46:41;100138.81;;;17.60;48.07
71145;BME280;58812;47.698;17.726;2023-04-22T06:49:06;100138.91;;;17.45;46.80
71145;BME280;58812;47.698;17.726;2023-04-22T06:51:32;100142.94;;;18.33;46.84
71145;BME280;58812;47.698;17.726;2023-04-22T06:53:57;100140.56;;;18.24;48.69
71145;BME280;58812;47.698;17.726;2023-04-22T06:56:23;100142.56;;;18.91;47.89
71145;BME280;58812;47.698;17.726;2023-04-22T06:58:49;100139.97;;;19.37;46.31
71145;BME280;58812;47.698;17.726;2023-04-22T07:01:14;100148.41;;;19.76;44.83
71145;BME280;58812;47.698;17.726;2023-04-22T07:03:39;100147.50;;;20.28;43.98
71145;BME280;58812;47.698;17.726;2023-04-22T07:06:05;100140.34;;;20.53;41.49
71145;BME280;58812;47.698;17.726;2023-04-22T07:08:31;100143.09;;;20.27;39.99
71145;BME280;58812;47.698;17.726;2023-04-22T07:10:56;100136.28;;;20.76;41.71
71145;BME280;58812;47.698;17.726;2023-04-22T07:13:22;100139.88;;;20.70;39.86
71145;BME280;58812;47.698;17.726;2023-04-22T07:15:47;100136.94;;;21.10;40.20
71145;BME280;58812;47.698;17.726;2023-04-22T07:18:13;100147.22;;;21.07;40.57
71145;BME280;58812;47.698;17.726;2023-04-22T07:20:38;100148.47;;;21.43;38.35
71145;BME280;58812;47.698;17.726;2023-04-22T07:23:04;100143.47;;;21.02;39.20
71145;BME280;58812;47.698;17.726;2023-04-22T07:25:29;100146.97;;;20.71;39.49
71145;BME280;58812;47.698;17.726;2023-04-22T07:27:55;100145.69;;;21.50;38.63
71145;BME280;58812;47.698;17.726;2023-04-22T07:30:20;100151.59;;;21.97;38.26
71145;BME280;58812;47.698;17.726;2023-04-22T07:32:45;100144.72;;;21.94;37.33
71145;BME280;58812;47.698;17.726;2023-04-22T07:35:11;100147.81;;;21.48;37.77
71145;BME280;58812;47.698;17.726;2023-04-22T07:37:36;100152.34;;;21.60;37.99
71145;BME280;58812;47.698;17.726;2023-04-22T07:40:02;100154.06;;;21.55;36.98
71145;BME280;58812;47.698;17.726;2023-04-22T07:42:27;100144.50;;;21.96;36.36
71145;BME280;58812;47.698;17.726;2023-04-22T07:44:53;100141.25;;;21.24;37.63
71145;BME280;58812;47.698;17.726;2023-04-22T07:47:18;100142.25;;;20.91;37.73
71145;BME280;58812;47.698;17.726;2023-04-22T07:49:44;100147.56;;;21.18;38.30
71145;BME280;58812;47.698;17.726;2023-04-22T07:52:09;100139.09;;;20.49;38.58
71145;BME280;58812;47.698;17.726;2023-04-22T07:54:35;100137.19;;;20.43;36.96
71145;BME280;58812;47.698;17.726;2023-04-22T07:57:00;100146.53;;;21.19;36.38
71145;BME280;58812;47.698;17.726;2023-04-22T07:59:26;100150.56;;;21.03;36.09
71145;BME280;58812;47.698;17.726;2023-04-22T08:01:51;100152.22;;;22.24;35.66
71145;BME280;58812;47.698;17.726;2023-04-22T08:04:20;100151.06;;;22.86;33.99
71145;BME280;58812;47.698;17.726;2023-04-22T08:06:46;100141.31;;;21.17;35.55
71145;BME280;58812;47.698;17.726;2023-04-22T08:09:11;100146.34;;;21.45;35.15
71145;BME280;58812;47.698;17.726;2023-04-22T08:11:37;100148.56;;;21.62;34.91
71145;BME280;58812;47.698;17.726;2023-04-22T08:14:02;100144.16;;;22.10;34.70
71145;BME280;58812;47.698;17.726;2023-04-22T08:16:28;100148.41;;;22.98;34.59
71145;BME280;58812;47.698;17.726;2023-04-22T08:18:53;100151.28;;;21.62;34.14
71145;BME280;58812;47.698;17.726;2023-04-22T08:21:20;100159.56;;;21.48;34.99
71145;BME280;58812;47.698;17.726;2023-04-22T08:23:46;100144.88;;;21.49;32.17
71145;BME280;58812;47.698;17.726;2023-04-22T08:26:11;100155.53;;;22.81;33.42
71145;BME280;58812;47.698;17.726;2023-04-22T08:28:39;100152.31;;;22.72;31.28
71145;BME280;58812;47.698;17.726;2023-04-22T08:31:05;100152.16;;;23.15;32.47
71145;BME280;58812;47.698;17.726;2023-04-22T08:33:31;100151.19;;;23.40;32.33
71145;BME280;58812;47.698;17.726;2023-04-22T08:35:56;100151.47;;;22.90;31.63
71145;BME280;58812;47.698;17.726;2023-04-22T08:38:21;100149.00;;;23.18;31.95
71145;BME280;58812;47.698;17.726;2023-04-22T08:40:47;100154.41;;;23.37;32.30
71145;BME280;58812;47.698;17.726;2023-04-22T08:43:13;100153.84;;;23.16;32.43
71145;BME280;58812;47.698;17.726;2023-04-22T08:45:39;100151.53;;;23.74;31.51
71145;BME280;58812;47.698;17.726;2023-04-22T08:48:07;100149.41;;;24.46;30.86
71145;BME280;58812;47.698;17.726;2023-04-22T08:50:36;100148.91;;;21.72;33.79
71145;BME280;58812;47.698;17.726;2023-04-22T08:53:02;100142.91;;;21.25;32.73
71145;BME280;58812;47.698;17.726;2023-04-22T08:55:28;100143.34;;;22.83;31.44
71145;BME280;58812;47.698;17.726;2023-04-22T08:57:54;100149.06;;;23.84;30.20
71145;BME280;58812;47.698;17.726;2023-04-22T09:00:20;100149.88;;;24.43;29.96
71145;BME280;58812;47.698;17.726;2023-04-22T09:02:46;100145.44;;;24.54;28.88
71145;BME280;58812;47.698;17.726;2023-04-22T09:05:12;100140.94;;;23.77;28.96
71145;BME280;58812;47.698;17.726;2023-04-22T09:07:39;100144.63;;;22.99;30.17
71145;BME280;58812;47.698;17.726;2023-04-22T09:10:05;100147.81;;;22.41;31.34
71145;BME280;58812;47.698;17.726;2023-04-22T09:12:32;100133.78;;;21.13;34.20
71145;BME280;58812;47.698;17.726;2023-04-22T09:14:58;100136.44;;;22.99;33.12
71145;BME280;58812;47.698;17.726;2023-04-22T09:17:34;100136.81;;;24.10;30.99
71145;BME280;58812;47.698;17.726;2023-04-22T09:20:03;100141.44;;;22.47;32.14
71145;BME280;58812;47.698;17.726;2023-04-22T09:22:45;100148.22;;;24.42;30.00
71145;BME280;58812;47.698;17.726;2023-04-22T09:25:26;100139.91;;;24.77;31.11
71145;BME280;58812;47.698;17.726;2023-04-22T09:30:23;100139.91;;;23.06;33.71
71145;BME280;58812;47.698;17.726;2023-04-22T09:32:56;100148.94;;;23.90;31.31
71145;BME280;58812;47.698;17.726;2023-04-22T09:37:51;100142.81;;;24.59;30.65
71145;BME280;58812;47.698;17.726;2023-04-22T09:40:20;100146.06;;;25.24;30.01
71145;BME280;58812;47.698;17.726;2023-04-22T09:42:50;100148.13;;;25.63;29.94
71145;BME280;58812;47.698;17.726;2023-04-22T09:47:59;100132.75;;;24.12;30.37
71145;BME280;58812;47.698;17.726;2023-04-22T09:50:26;100137.38;;;23.88;32.18
71145;BME280;58812;47.698;17.726;2023-04-22T09:52:58;100127.19;;;23.84;31.91
71145;BME280;58812;47.698;17.726;2023-04-22T09:55:25;100122.25;;;24.96;29.39
71145;BME280;58812;47.698;17.726;2023-04-22T09:57:56;100114.13;;;23.44;31.21
71145;BME280;58812;47.698;17.726;2023-04-22T10:00:28;100108.25;;;23.70;30.80
71145;BME280;58812;47.698;17.726;2023-04-22T10:02:53;100117.63;;;24.57;30.01
71145;BME280;58812;47.698;17.726;2023-04-22T10:05:19;100112.66;;;23.30;30.99
71145;BME280;58812;47.698;17.726;2023-04-22T10:07:45;100105.50;;;24.17;30.88
71145;BME280;58812;47.698;17.726;2023-04-22T10:10:10;100105.94;;;24.90;30.22
71145;BME280;58812;47.698;17.726;2023-04-22T10:12:36;100108.81;;;24.83;30.85
71145;BME280;58812;47.698;17.726;2023-04-22T10:15:03;100108.72;;;25.35;30.12
71145;BME280;58812;47.698;17.726;2023-04-22T10:17:32;100106.97;;;25.74;29.73
71145;BME280;58812;47.698;17.726;2023-04-22T10:20:02;100103.81;;;24.92;29.29
71145;BME280;58812;47.698;17.726;2023-04-22T10:22:30;100090.50;;;24.55;30.59
71145;BME280;58812;47.698;17.726;2023-04-22T10:24:57;100103.28;;;23.67;33.35
71145;BME280;58812;47.698;17.726;2023-04-22T10:27:23;100091.09;;;24.45;31.35
71145;BME280;58812;47.698;17.726;2023-04-22T10:29:49;100092.06;;;25.08;29.87
71145;BME280;58812;47.698;17.726;2023-04-22T10:34:45;100087.66;;;23.44;32.92
71145;BME280;58812;47.698;17.726;2023-04-22T10:37:11;100082.84;;;23.28;31.88
71145;BME280;58812;47.698;17.726;2023-04-22T10:39:39;100081.59;;;23.54;31.48
71145;BME280;58812;47.698;17.726;2023-04-22T10:42:07;100087.84;;;24.89;30.22
71145;BME280;58812;47.698;17.726;2023-04-22T10:44:47;100096.31;;;25.78;28.69
71145;BME280;58812;47.698;17.726;2023-04-22T10:47:36;100095.59;;;26.65;27.87
71145;BME280;58812;47.698;17.726;2023-04-22T10:50:13;100091.31;;;25.92;29.17
71145;BME280;58812;47.698;17.726;2023-04-22T10:52:41;100079.22;;;25.09;29.35
71145;BME280;58812;47.698;17.726;2023-04-22T10:55:06;100081.53;;;23.73;30.83
71145;BME280;58812;47.698;17.726;2023-04-22T10:57:35;100075.41;;;24.17;29.96
71145;BME280;58812;47.698;17.726;2023-04-22T11:00:46;100073.78;;;22.86;31.51
71145;BME280;58812;47.698;17.726;2023-04-22T11:03:17;100066.00;;;23.31;31.42
71145;BME280;58812;47.698;17.726;2023-04-22T11:05:43;100074.69;;;23.52;29.47
71145;BME280;58812;47.698;17.726;2023-04-22T11:08:19;100069.34;;;23.45;30.65
71145;BME280;58812;47.698;17.726;2023-04-22T11:10:51;100071.31;;;22.84;29.43
71145;BME280;58812;47.698;17.726;2023-04-22T11:13:20;100063.50;;;23.30;28.39
71145;BME280;58812;47.698;17.726;2023-04-22T11:15:49;100064.72;;;23.57;29.09
71145;BME280;58812;47.698;17.726;2023-04-22T11:18:20;100060.22;;;23.51;30.52
71145;BME280;58812;47.698;17.726;2023-04-22T11:20:47;100059.41;;;23.74;29.82
71145;BME280;58812;47.698;17.726;2023-04-22T11:23:23;100055.06;;;23.19;29.83
71145;BME280;58812;47.698;17.726;2023-04-22T11:26:00;100060.97;;;23.82;29.91
71145;BME280;58812;47.698;17.726;2023-04-22T11:28:26;100063.56;;;24.00;28.72
71145;BME280;58812;47.698;17.726;2023-04-22T11:30:52;100052.88;;;23.63;29.49
71145;BME280;58812;47.698;17.726;2023-04-22T11:33:18;100061.06;;;25.87;27.16
71145;BME280;58812;47.698;17.726;2023-04-22T11:35:43;100058.19;;;26.15;27.12
71145;BME280;58812;47.698;17.726;2023-04-22T11:38:09;100055.25;;;25.83;26.47
71145;BME280;58812;47.698;17.726;2023-04-22T11:40:37;100057.47;;;26.25;26.42
71145;BME280;58812;47.698;17.726;2023-04-22T11:43:04;100058.75;;;24.71;28.85
71145;BME280;58812;47.698;17.726;2023-04-22T11:45:32;100050.50;;;23.79;29.49
71145;BME280;58812;47.698;17.726;2023-04-22T11:47:59;100048.62;;;24.71;28.99
71145;BME280;58812;47.698;17.726;2023-04-22T11:50:27;100054.16;;;24.19;29.46
71145;BME280;58812;47.698;17.726;2023-04-22T11:52:58;100052.59;;;22.70;31.00
71145;BME280;58812;47.698;17.726;2023-04-22T11:55:33;100048.53;;;23.21;30.30
71145;BME280;58812;47.698;17.726;2023-04-22T11:58:06;100054.63;;;23.46;28.96
71145;BME280;58812;47.698;17.726;2023-04-22T12:00:34;100048.62;;;23.14;29.74
71145;BME280;58812;47.698;17.726;2023-04-22T12:03:22;100051.84;;;25.09;28.18
71145;BME280;58812;47.698;17.726;2023-04-22T12:05:55;100048.59;;;24.55;27.51
71145;BME280;58812;47.698;17.726;2023-04-22T12:08:23;100048.41;;;24.33;27.78
71145;BME280;58812;47.698;17.726;2023-04-22T12:10:55;100047.75;;;24.54;27.22
71145;BME280;58812;47.698;17.726;2023-04-22T12:13:25;100048.69;;;25.34;26.48
71145;BME280;58812;47.698;17.726;2023-04-22T12:15:57;100038.03;;;24.75;28.71
71145;BME280;58812;47.698;17.726;2023-04-22T12:18:37;100047.72;;;24.37;28.92
71145;BME280;58812;47.698;17.726;2023-04-22T12:23:29;100039.00;;;23.11;30.21
71145;BME280;58812;47.698;17.726;2023-04-22T12:25:54;100039.22;;;23.75;29.83
71145;BME280;58812;47.698;17.726;2023-04-22T12:28:20;100041.22;;;24.03;28.23
71145;BME280;58812;47.698;17.726;2023-04-22T12:30:45;100033.50;;;25.09;26.75
71145;BME280;58812;47.698;17.726;2023-04-22T12:33:11;100031.78;;;24.63;27.07
71145;BME280;58812;47.698;17.726;2023-04-22T12:35:36;100031.81;;;23.99;28.60
71145;BME280;58812;47.698;17.726;2023-04-22T12:38:02;100029.56;;;24.08;28.33
71145;BME280;58812;47.698;17.726;2023-04-22T12:40:27;100024.81;;;23.56;29.39
71145;BME280;58812;47.698;17.726;2023-04-22T12:42:53;100028.50;;;23.50;28.81
71145;BME280;58812;47.698;17.726;2023-04-22T12:45:19;100026.03;;;22.95;29.66
71145;BME280;58812;47.698;17.726;2023-04-22T12:47:44;100013.50;;;23.41;29.48
71145;BME280;58812;47.698;17.726;2023-04-22T12:50:11;100017.44;;;22.31;31.24